createdAt,value
2022-10-18T00:02:05.744Z,1.33
2022-10-18T00:04:32.805Z,1.70
2022-10-18T00:06:59.465Z,1.98
2022-10-18T00:09:27.597Z,1.80
2022-10-18T00:11:55.156Z,1.58
2022-10-18T00:14:22.181Z,1.00
2022-10-18T00:16:48.657Z,2.03
2022-10-18T00:19:15.236Z,2.28
2022-10-18T00:21:42.097Z,1.70
2022-10-18T00:24:08.644Z,2.30
2022-10-18T00:26:35.134Z,1.70
2022-10-18T00:29:05.874Z,1.60
2022-10-18T00:31:37.645Z,1.52
2022-10-18T00:34:06.991Z,1.60
2022-10-18T00:36:34.479Z,2.20
2022-10-18T00:39:02.240Z,1.50
2022-10-18T00:41:30.889Z,1.40
2022-10-18T00:44:07.300Z,1.42
2022-10-18T00:46:36.233Z,1.55
2022-10-18T00:49:09.500Z,1.27
2022-10-18T00:51:46.847Z,1.25
2022-10-18T00:54:14.942Z,2.15
2022-10-18T00:56:41.818Z,1.67
2022-10-18T00:59:08.411Z,1.65
2022-10-18T01:01:34.947Z,1.42
2022-10-18T01:04:01.435Z,2.05
2022-10-18T01:06:29.076Z,0.90
2022-10-18T01:08:56.780Z,1.63
2022-10-18T01:11:36.197Z,1.98
2022-10-18T01:14:33.982Z,1.73
2022-10-18T01:17:29.331Z,1.77
2022-10-18T01:19:59.031Z,1.50
2022-10-18T01:22:49.715Z,1.70
2022-10-18T01:25:38.045Z,1.45
2022-10-18T01:28:39.989Z,1.50
2022-10-18T01:31:15.048Z,1.67
2022-10-18T01:33:42.849Z,1.70
2022-10-18T01:36:24.085Z,1.92
2022-10-18T01:38:53.785Z,1.90
2022-10-18T01:41:24.247Z,1.80
2022-10-18T01:43:56.087Z,1.55
2022-10-18T01:46:24.629Z,1.65
2022-10-18T01:48:53.574Z,1.17
2022-10-18T01:51:24.746Z,1.98
2022-10-18T01:53:51.268Z,2.40
2022-10-18T01:56:39.439Z,1.40
2022-10-18T01:59:24.399Z,1.70
2022-10-18T02:02:12.599Z,1.90
2022-10-18T02:04:42.009Z,1.80
2022-10-18T02:07:23.942Z,1.70
2022-10-18T02:10:35.140Z,1.52
2022-10-18T02:13:02.507Z,2.25
2022-10-18T02:15:41.273Z,2.05
2022-10-18T02:18:23.670Z,2.50
2022-10-18T02:20:51.821Z,1.50
2022-10-18T02:23:21.403Z,2.00
2022-10-18T02:25:47.995Z,1.70
2022-10-18T02:28:14.685Z,2.25
2022-10-18T02:30:49.631Z,1.90
2022-10-18T02:33:39.546Z,2.00
2022-10-18T02:36:23.235Z,2.55
2022-10-18T02:38:54.996Z,2.25
2022-10-18T02:41:28.358Z,1.85
2022-10-18T02:43:54.872Z,1.52
2022-10-18T02:46:21.475Z,2.63
2022-10-18T02:48:48.126Z,1.40
2022-10-18T02:51:14.977Z,1.83
2022-10-18T02:53:41.843Z,1.83
2022-10-18T02:56:08.984Z,1.58
2022-10-18T02:58:35.480Z,1.52
2022-10-18T03:01:02.040Z,2.72
2022-10-18T03:03:28.763Z,1.98
2022-10-18T03:05:55.255Z,1.83
2022-10-18T03:08:22.823Z,1.40
2022-10-18T03:10:49.374Z,1.40
2022-10-18T03:13:15.991Z,1.75
2022-10-18T03:15:42.707Z,2.33
2022-10-18T03:18:10.037Z,1.58
2022-10-18T03:20:36.691Z,1.77
2022-10-18T03:23:03.388Z,1.85
2022-10-18T03:25:29.903Z,1.30
2022-10-18T03:27:56.356Z,1.98
2022-10-18T03:30:22.886Z,2.03
2022-10-18T03:32:49.352Z,1.20
2022-10-18T03:35:16.223Z,1.60
2022-10-18T03:37:42.735Z,1.38
2022-10-18T03:40:09.492Z,1.83
2022-10-18T03:42:35.990Z,1.45
2022-10-18T03:45:02.466Z,1.50
2022-10-18T03:47:28.980Z,1.42
2022-10-18T03:49:57.212Z,1.50
2022-10-18T03:52:24.096Z,1.63
2022-10-18T03:54:50.550Z,2.80
2022-10-18T03:57:17.089Z,1.55
2022-10-18T03:59:43.600Z,1.40
2022-10-18T04:02:10.403Z,1.60
2022-10-18T04:04:36.867Z,1.50
2022-10-18T04:07:03.399Z,2.33
2022-10-18T04:09:29.965Z,1.70
2022-10-18T04:11:56.437Z,2.00
2022-10-18T04:14:22.943Z,1.73
2022-10-18T04:16:49.510Z,1.65
2022-10-18T04:19:16.164Z,2.10
2022-10-18T04:21:42.655Z,1.88
2022-10-18T04:24:09.165Z,2.08
2022-10-18T04:26:35.691Z,2.20
2022-10-18T04:29:02.270Z,2.75
2022-10-18T04:31:28.782Z,2.28
2022-10-18T04:33:55.352Z,1.75
2022-10-18T04:36:21.834Z,1.80
2022-10-18T04:38:48.409Z,2.08
2022-10-18T04:41:14.870Z,1.80
2022-10-18T04:43:41.431Z,2.22
2022-10-18T04:46:07.919Z,2.53
2022-10-18T04:48:34.402Z,2.33
2022-10-18T04:51:00.983Z,2.35
2022-10-18T04:53:27.633Z,2.60
2022-10-18T04:55:54.163Z,2.47
2022-10-18T04:58:20.627Z,2.53
2022-10-18T05:00:47.862Z,1.98
2022-10-18T05:03:15.023Z,2.67
2022-10-18T05:06:00.860Z,2.10
2022-10-18T05:08:28.459Z,2.38
2022-10-18T05:10:54.959Z,2.60
2022-10-18T05:13:21.518Z,2.65
2022-10-18T05:15:47.998Z,3.60
2022-10-18T05:18:14.590Z,2.75
2022-10-18T05:20:41.103Z,2.65
2022-10-18T05:23:10.832Z,2.20
2022-10-18T05:25:41.603Z,2.10
2022-10-18T05:28:15.648Z,2.17
2022-10-18T05:30:53.843Z,1.88
2022-10-18T05:33:20.362Z,1.80
2022-10-18T05:35:46.862Z,2.65
2022-10-18T05:38:13.358Z,2.25
2022-10-18T05:40:39.822Z,1.70
2022-10-18T05:43:06.292Z,2.55
2022-10-18T05:45:32.885Z,2.88
2022-10-18T05:47:59.390Z,3.00
2022-10-18T05:50:25.917Z,3.20
2022-10-18T05:53:02.694Z,3.25
2022-10-18T05:55:39.377Z,2.45
2022-10-18T05:58:05.970Z,3.95
2022-10-18T06:00:32.576Z,4.30
2022-10-18T06:03:00.390Z,3.90
2022-10-18T06:05:27.308Z,4.53
2022-10-18T06:07:53.942Z,5.78
2022-10-18T06:10:20.536Z,5.50
2022-10-18T06:12:47.021Z,4.97
2022-10-18T06:15:14.178Z,4.88
2022-10-18T06:17:40.706Z,4.95
2022-10-18T06:20:08.455Z,3.88
2022-10-18T06:22:35.007Z,3.78
2022-10-18T06:25:01.570Z,3.58
2022-10-18T06:27:28.108Z,3.25
2022-10-18T06:29:54.780Z,3.38
2022-10-18T06:32:21.285Z,1.80
2022-10-18T06:34:47.816Z,2.30
2022-10-18T06:37:14.297Z,1.85
2022-10-18T06:39:41.167Z,1.80
2022-10-18T06:42:07.879Z,1.67
2022-10-18T06:44:34.393Z,2.10
2022-10-18T06:47:01.128Z,1.95
2022-10-18T06:49:27.676Z,1.60
2022-10-18T06:51:54.657Z,1.85
2022-10-18T06:54:21.537Z,2.33
2022-10-18T06:56:48.100Z,1.60
2022-10-18T06:59:14.950Z,2.00
2022-10-18T07:01:41.614Z,1.95
2022-10-18T07:04:08.277Z,2.30
2022-10-18T07:06:34.780Z,2.05
2022-10-18T07:09:03.156Z,1.83
2022-10-18T07:11:29.760Z,2.30
2022-10-18T07:14:03.149Z,2.08
2022-10-18T07:16:30.428Z,1.60
2022-10-18T07:18:57.469Z,1.85
2022-10-18T07:21:25.570Z,1.42
2022-10-18T07:23:52.918Z,1.67
2022-10-18T07:26:26.075Z,1.75
2022-10-18T07:29:01.891Z,1.77
2022-10-18T07:31:29.418Z,1.57
2022-10-18T07:33:56.049Z,1.70
2022-10-18T07:36:22.901Z,2.08
2022-10-18T07:38:51.989Z,1.60
2022-10-18T07:41:19.350Z,1.35
2022-10-18T07:43:53.444Z,1.40
2022-10-18T07:46:22.499Z,1.13
2022-10-18T07:48:50.039Z,1.00
2022-10-18T07:51:17.922Z,0.77
2022-10-18T07:53:44.481Z,0.80
2022-10-18T07:56:21.228Z,1.00
2022-10-18T07:58:52.688Z,0.95
2022-10-18T08:01:21.253Z,1.35
2022-10-18T08:03:48.184Z,1.30
2022-10-18T08:06:16.607Z,1.03
2022-10-18T08:08:43.197Z,1.05
2022-10-18T08:11:19.872Z,1.08
2022-10-18T08:13:46.752Z,0.70
2022-10-18T08:16:16.164Z,1.08
2022-10-18T08:18:42.787Z,0.90
2022-10-18T08:21:11.640Z,1.10
2022-10-18T08:23:38.791Z,0.80
2022-10-18T08:26:08.639Z,1.60
2022-10-18T08:28:38.336Z,1.27
2022-10-18T08:31:13.173Z,1.42
2022-10-18T08:33:40.310Z,1.50
2022-10-18T08:36:08.950Z,1.40
2022-10-18T08:38:36.912Z,1.05
2022-10-18T08:41:28.395Z,1.00
2022-10-18T08:44:27.765Z,1.00
2022-10-18T08:47:19.642Z,1.55
2022-10-18T08:50:00.927Z,1.33
2022-10-18T08:52:45.141Z,1.13
2022-10-18T08:55:24.525Z,1.70
2022-10-18T08:57:51.627Z,1.98
2022-10-18T09:00:23.304Z,1.80
2022-10-18T09:02:54.783Z,2.15
2022-10-18T09:05:51.166Z,1.98
2022-10-18T09:08:29.945Z,2.13
2022-10-18T09:11:06.778Z,1.90
2022-10-18T09:14:03.595Z,2.00
2022-10-18T09:17:14.991Z,2.42
2022-10-18T09:20:11.964Z,2.25
2022-10-18T09:23:01.729Z,2.38
2022-10-18T09:25:45.677Z,2.97
2022-10-18T09:28:19.763Z,2.33
2022-10-18T09:31:15.368Z,2.25
2022-10-18T09:33:48.016Z,2.55
2022-10-18T09:36:20.916Z,2.45
2022-10-18T09:38:51.436Z,2.65
2022-10-18T09:41:26.888Z,2.90
2022-10-18T09:44:02.665Z,2.63
2022-10-18T09:46:38.768Z,2.72
2022-10-18T09:49:16.358Z,3.03
2022-10-18T09:51:45.029Z,2.53
2022-10-18T09:54:17.561Z,3.45
2022-10-18T09:56:51.524Z,2.90
2022-10-18T09:59:35.939Z,2.65
2022-10-18T10:02:03.023Z,3.30
2022-10-18T10:04:29.690Z,2.58
2022-10-18T10:06:59.480Z,2.95
2022-10-18T10:09:36.459Z,2.38
2022-10-18T10:12:03.275Z,3.13
2022-10-18T10:14:30.770Z,2.88
2022-10-18T10:17:05.859Z,2.97
2022-10-18T10:19:39.751Z,2.95
2022-10-18T10:22:09.574Z,2.80
2022-10-18T10:24:39.194Z,3.13
2022-10-18T10:27:15.517Z,2.40
2022-10-18T10:29:53.665Z,2.67
2022-10-18T10:32:22.550Z,2.38
2022-10-18T10:34:50.303Z,2.58
2022-10-18T10:37:23.013Z,2.60
2022-10-18T10:40:17.917Z,1.75
2022-10-18T10:42:59.948Z,2.70
2022-10-18T10:45:55.159Z,2.22
2022-10-18T10:48:22.334Z,2.58
2022-10-18T10:51:22.803Z,2.47
2022-10-18T10:53:57.729Z,2.70
2022-10-18T10:56:30.351Z,2.92
2022-10-18T10:59:06.948Z,2.70
2022-10-18T11:01:34.179Z,2.78
2022-10-18T11:04:30.552Z,2.13
2022-10-18T11:07:05.939Z,2.50
2022-10-18T11:09:41.650Z,2.90
2022-10-18T11:12:30.783Z,2.05
2022-10-18T11:15:12.478Z,1.77
2022-10-18T11:18:08.274Z,2.25
2022-10-18T11:20:47.193Z,2.33
2022-10-18T11:23:16.039Z,1.75
2022-10-18T11:25:45.665Z,1.52
2022-10-18T11:28:31.079Z,1.35
2022-10-18T11:31:15.509Z,1.10
2022-10-18T11:34:11.222Z,1.25
2022-10-18T11:37:15.594Z,1.20
2022-10-18T11:40:16.908Z,1.15
2022-10-18T11:42:58.455Z,0.95
2022-10-18T11:48:10.008Z,1.10
2022-10-18T11:50:51.726Z,0.85
2022-10-18T11:53:29.499Z,1.08
2022-10-18T11:56:19.978Z,0.82
2022-10-18T11:58:49.410Z,0.75
2022-10-18T12:01:38.762Z,0.55
2022-10-18T12:04:14.961Z,0.50
2022-10-18T12:06:45.285Z,0.50
2022-10-18T12:09:17.979Z,0.60
2022-10-18T12:11:55.492Z,0.52
2022-10-18T12:14:30.221Z,0.63
2022-10-18T12:17:40.186Z,0.82
2022-10-18T12:20:10.593Z,0.63
2022-10-18T12:22:47.462Z,0.60
2022-10-18T12:25:16.280Z,0.40
2022-10-18T12:27:56.787Z,0.82
2022-10-18T12:30:31.210Z,0.70
2022-10-18T12:33:27.320Z,0.82
2022-10-18T12:36:13.557Z,0.60
2022-10-18T12:38:43.711Z,0.82
2022-10-18T12:41:32.207Z,0.90
2022-10-18T12:44:17.562Z,0.57
2022-10-18T12:46:52.079Z,0.75
2022-10-18T12:49:41.407Z,0.93
2022-10-18T12:52:33.941Z,0.70
2022-10-18T12:55:19.328Z,1.00
2022-10-18T12:57:51.816Z,0.80
2022-10-18T13:00:30.217Z,0.90
2022-10-18T13:03:18.227Z,0.60
2022-10-18T13:05:56.223Z,1.00
2022-10-18T13:08:29.220Z,0.77
2022-10-18T13:11:01.957Z,0.75
2022-10-18T13:13:59.106Z,0.57
2022-10-18T13:16:49.037Z,0.45
2022-10-18T13:19:33.941Z,0.55
2022-10-18T13:22:09.287Z,0.40
2022-10-18T13:24:44.625Z,0.50
2022-10-18T13:27:42.157Z,0.40
2022-10-18T13:30:27.222Z,0.50
2022-10-18T13:33:02.808Z,0.30
2022-10-18T13:35:38.327Z,0.43
2022-10-18T13:38:26.530Z,0.30
2022-10-18T13:41:14.513Z,0.55
2022-10-18T13:43:53.471Z,0.30
2022-10-18T13:46:44.306Z,0.70
2022-10-18T13:49:14.740Z,0.60
2022-10-18T13:51:59.312Z,0.50
2022-10-18T13:54:59.737Z,0.57
2022-10-18T13:57:47.577Z,0.65
2022-10-18T14:00:35.421Z,0.82
2022-10-18T14:03:56.224Z,0.50
2022-10-18T14:06:45.071Z,0.50
2022-10-18T14:09:55.021Z,0.57
2022-10-18T14:12:32.584Z,0.60
2022-10-18T14:15:27.218Z,0.50
2022-10-18T14:18:01.614Z,0.73
2022-10-18T14:20:55.492Z,0.68
2022-10-18T14:23:43.429Z,0.40
2022-10-18T14:26:19.047Z,0.40
2022-10-18T14:29:01.445Z,0.47
2022-10-18T14:31:28.253Z,0.40
2022-10-18T14:33:58.413Z,0.35
2022-10-18T14:36:29.475Z,0.50
2022-10-18T14:39:02.096Z,0.57
2022-10-18T14:41:31.023Z,0.73
2022-10-18T14:44:16.614Z,0.40
2022-10-18T14:46:49.243Z,0.43
2022-10-18T14:49:17.549Z,0.70
2022-10-18T14:51:46.714Z,0.50
2022-10-18T14:54:30.698Z,0.60
2022-10-18T14:56:59.833Z,0.68
2022-10-18T14:59:37.708Z,0.80
2022-10-18T15:02:16.040Z,0.47
2022-10-18T15:04:46.356Z,0.52
2022-10-18T15:07:15.786Z,0.50
2022-10-18T15:09:43.530Z,0.57
2022-10-18T15:12:13.516Z,0.77
2022-10-18T15:14:41.335Z,1.05
2022-10-18T15:17:15.467Z,0.65
2022-10-18T15:19:55.003Z,1.17
2022-10-18T15:22:31.619Z,0.68
2022-10-18T15:25:14.925Z,0.60
2022-10-18T15:27:45.323Z,0.82
2022-10-18T15:30:25.678Z,0.80
2022-10-18T15:32:54.915Z,1.27
2022-10-18T15:35:33.425Z,0.90
2022-10-18T15:38:12.776Z,1.02
2022-10-18T15:40:40.359Z,0.93
2022-10-18T15:43:26.795Z,1.55
2022-10-18T15:46:01.640Z,1.20
2022-10-18T15:48:38.121Z,1.48
2022-10-18T15:51:48.086Z,1.35
2022-10-18T15:54:19.306Z,0.95
2022-10-18T15:56:46.054Z,0.85
2022-10-18T15:59:50.738Z,1.25
2022-10-18T16:02:17.395Z,0.60
2022-10-18T16:04:43.980Z,0.88
2022-10-18T16:07:11.975Z,0.85
2022-10-18T16:09:38.618Z,1.30
2022-10-18T16:12:05.498Z,1.08
2022-10-18T16:14:32.241Z,1.63
2022-10-18T16:17:01.046Z,1.00
2022-10-18T16:19:28.097Z,1.55
2022-10-18T16:21:55.131Z,1.27
2022-10-18T16:24:23.044Z,1.20
2022-10-18T16:26:49.851Z,1.05
2022-10-18T16:29:21.706Z,0.77
2022-10-18T16:31:48.412Z,0.90
2022-10-18T16:34:14.928Z,1.23
2022-10-18T16:36:41.727Z,1.40
2022-10-18T16:39:14.896Z,1.35
2022-10-18T16:41:41.631Z,1.00
2022-10-18T16:44:08.151Z,1.08
2022-10-18T16:46:35.665Z,1.10
2022-10-18T16:49:02.999Z,1.33
2022-10-18T16:51:29.545Z,1.50
2022-10-18T16:53:56.131Z,1.42
2022-10-18T16:56:30.624Z,1.15
2022-10-18T16:58:58.579Z,1.17
2022-10-18T17:01:25.881Z,1.75
2022-10-18T17:03:53.513Z,1.50
2022-10-18T17:06:21.967Z,1.27
2022-10-18T17:08:48.921Z,2.00
2022-10-18T17:11:20.562Z,1.83
2022-10-18T17:13:47.369Z,2.58
2022-10-18T17:16:21.426Z,1.80
2022-10-18T17:18:47.968Z,1.83
2022-10-18T17:21:14.538Z,1.55
2022-10-18T17:23:41.043Z,1.90
2022-10-18T17:26:27.725Z,1.70
2022-10-18T17:28:59.260Z,1.70
2022-10-18T17:31:25.888Z,1.33
2022-10-18T17:33:54.717Z,2.20
2022-10-18T17:36:22.215Z,1.90
2022-10-18T17:38:53.513Z,1.83
2022-10-18T17:41:20.690Z,1.77
2022-10-18T17:43:48.508Z,2.10
2022-10-18T17:46:15.966Z,2.13
2022-10-18T17:48:42.727Z,2.10
2022-10-18T17:51:11.357Z,2.97
2022-10-18T17:53:38.068Z,2.15
2022-10-18T17:56:05.731Z,2.20
2022-10-18T17:58:32.477Z,1.90
2022-10-18T18:01:11.409Z,2.70
2022-10-18T18:03:38.120Z,2.80
2022-10-18T18:06:36.924Z,2.20
2022-10-18T18:09:10.447Z,2.20
2022-10-18T18:11:40.151Z,2.30
2022-10-18T18:14:10.738Z,2.53
2022-10-18T18:16:43.114Z,2.40
2022-10-18T18:19:10.377Z,2.77
2022-10-18T18:21:41.153Z,2.30
2022-10-18T18:24:08.302Z,2.23
2022-10-18T18:26:36.178Z,2.87
2022-10-18T18:31:34.326Z,2.35
2022-10-18T18:34:05.212Z,2.57
2022-10-18T18:36:32.599Z,2.25
2022-10-18T18:38:59.548Z,2.38
2022-10-18T18:41:27.670Z,2.13
2022-10-18T18:44:03.362Z,3.00
2022-10-18T18:46:33.327Z,2.60
2022-10-18T18:49:00.548Z,3.03
2022-10-18T18:51:27.331Z,3.65
2022-10-18T18:53:54.310Z,3.92
2022-10-18T18:56:25.304Z,3.43
2022-10-18T18:58:53.315Z,3.67
2022-10-18T19:01:22.886Z,4.40
2022-10-18T19:03:51.941Z,4.55
2022-10-18T19:06:24.433Z,3.35
2022-10-18T19:08:54.335Z,3.88
2022-10-18T19:11:22.776Z,5.07
2022-10-18T19:13:49.809Z,3.03
2022-10-18T19:16:28.661Z,3.90
2022-10-18T19:19:06.233Z,3.72
2022-10-18T19:21:35.700Z,3.83
2022-10-18T19:24:03.418Z,4.38
2022-10-18T19:26:45.686Z,3.55
2022-10-18T19:29:16.656Z,4.35
2022-10-18T19:31:43.973Z,3.37
2022-10-18T19:34:12.654Z,4.30
2022-10-18T19:36:41.944Z,3.65
2022-10-18T19:39:12.134Z,4.28
2022-10-18T19:41:38.839Z,3.85
2022-10-18T19:44:05.784Z,3.87
2022-10-18T19:46:32.714Z,3.93
2022-10-18T19:48:59.365Z,4.20
2022-10-18T19:51:28.297Z,4.60
2022-10-18T19:53:56.593Z,4.30
2022-10-18T19:56:24.771Z,4.47
2022-10-18T19:58:51.755Z,4.20
2022-10-18T20:01:19.537Z,3.93
2022-10-18T20:03:47.265Z,4.03
2022-10-18T20:06:13.944Z,3.90
2022-10-18T20:11:13.369Z,5.10
2022-10-18T20:13:40.698Z,4.37
2022-10-18T20:16:09.084Z,4.30
2022-10-18T20:18:36.184Z,4.60
2022-10-18T20:21:07.607Z,3.43
2022-10-18T20:23:39.071Z,4.70
2022-10-18T20:26:08.304Z,5.40
2022-10-18T20:28:35.251Z,4.87
2022-10-18T20:31:04.510Z,4.63
2022-10-18T20:33:32.165Z,4.17
2022-10-18T20:36:18.939Z,5.53
2022-10-18T20:38:48.105Z,4.53
2022-10-18T20:41:26.261Z,4.50
2022-10-18T20:43:58.458Z,5.03
2022-10-18T20:46:25.677Z,4.43
2022-10-18T20:48:54.256Z,4.90
2022-10-18T20:51:21.720Z,5.47
2022-10-18T20:53:48.615Z,4.63
2022-10-18T20:56:20.987Z,4.97
2022-10-18T20:58:51.987Z,6.03
2022-10-18T21:01:27.439Z,5.30
2022-10-18T21:03:56.179Z,6.13
2022-10-18T21:06:28.366Z,4.93
2022-10-18T21:08:56.319Z,6.27
2022-10-18T21:11:23.651Z,5.60
2022-10-18T21:13:55.558Z,5.87
2022-10-18T21:16:22.185Z,6.10
2022-10-18T21:18:48.970Z,6.17
2022-10-18T21:21:18.766Z,6.17
2022-10-18T21:23:46.518Z,6.37
2022-10-18T21:26:22.496Z,6.47
2022-10-18T21:28:53.958Z,6.30
2022-10-18T21:31:23.627Z,5.90
2022-10-18T21:33:59.697Z,5.27
2022-10-18T21:36:27.991Z,5.17
2022-10-18T21:38:54.614Z,5.30
2022-10-18T21:41:22.312Z,4.90
2022-10-18T21:43:51.416Z,5.53
2022-10-18T21:46:20.272Z,4.80
2022-10-18T21:48:49.640Z,5.80
2022-10-18T21:51:18.499Z,5.20
2022-10-18T21:53:46.867Z,5.50
2022-10-18T21:56:19.688Z,5.73
2022-10-18T21:58:46.518Z,5.17
2022-10-18T22:01:17.514Z,5.17
2022-10-18T22:03:45.567Z,5.27
2022-10-18T22:06:14.847Z,5.30
2022-10-18T22:08:45.193Z,4.53
2022-10-18T22:11:12.395Z,5.43
2022-10-18T22:13:39.353Z,4.67
2022-10-18T22:16:07.471Z,6.00
2022-10-18T22:18:35.147Z,6.63
2022-10-18T22:21:05.153Z,6.03
2022-10-18T22:23:37.311Z,5.67
2022-10-18T22:26:11.927Z,6.27
2022-10-18T22:28:40.392Z,4.97
2022-10-18T22:31:14.144Z,7.13
2022-10-18T22:33:40.844Z,5.47
2022-10-18T22:36:07.613Z,7.67
2022-10-18T22:38:35.157Z,5.20
2022-10-18T22:41:10.057Z,5.87
2022-10-18T22:43:37.541Z,5.10
2022-10-18T22:46:06.976Z,5.17
2022-10-18T22:48:34.137Z,5.27
2022-10-18T22:51:01.190Z,5.20
2022-10-18T22:53:28.134Z,5.07
2022-10-18T22:55:55.082Z,5.70
2022-10-18T22:58:21.876Z,4.50
2022-10-18T23:00:48.518Z,4.97
2022-10-18T23:03:16.996Z,4.80
2022-10-18T23:05:45.322Z,5.20
2022-10-18T23:08:13.809Z,4.87
2022-10-18T23:10:42.094Z,4.90
2022-10-18T23:13:09.294Z,4.30
2022-10-18T23:15:36.074Z,5.43
2022-10-18T23:18:02.684Z,5.03
2022-10-18T23:20:29.335Z,4.73
2022-10-18T23:22:55.921Z,4.83
2022-10-18T23:25:22.672Z,4.47
2022-10-18T23:27:50.053Z,4.40
2022-10-18T23:30:17.961Z,4.90
2022-10-18T23:32:44.609Z,3.80
2022-10-18T23:35:11.290Z,3.90
2022-10-18T23:37:38.043Z,5.07
2022-10-18T23:40:05.108Z,4.20
2022-10-18T23:42:31.706Z,3.63
2022-10-18T23:44:58.294Z,4.73
2022-10-18T23:47:24.952Z,4.30
2022-10-18T23:49:51.546Z,3.93
2022-10-18T23:52:18.274Z,4.20
2022-10-18T23:57:12.309Z,3.57
2022-10-18T23:59:39.053Z,4.70
